createdAt,value
2022-10-09T00:02:41.057Z,31.4
2022-10-09T00:08:17.790Z,31.4
2022-10-09T00:13:55.799Z,31.4
2022-10-09T00:19:33.222Z,31.3
2022-10-09T00:25:09.884Z,31.3
2022-10-09T00:36:13.450Z,31.3
2022-10-09T00:41:34.371Z,31.3
2022-10-09T00:47:12.148Z,31.3
2022-10-09T00:52:50.316Z,31.2
2022-10-09T00:58:28.063Z,31.2
2022-10-09T01:04:05.853Z,31.2
2022-10-09T01:09:43.027Z,31.1
2022-10-09T01:15:20.138Z,31.1
2022-10-09T01:20:57.992Z,31.1
2022-10-09T01:31:56.283Z,31.1
2022-10-09T01:37:18.534Z,31.1
2022-10-09T01:42:55.417Z,31
2022-10-09T01:48:17.324Z,31
2022-10-09T01:59:17.667Z,30.9
2022-10-09T02:10:15.712Z,30.9
2022-10-09T02:15:53.310Z,30.9
2022-10-09T02:21:15.864Z,30.9
2022-10-09T02:26:58.027Z,30.9
2022-10-09T02:32:41.320Z,30.9
2022-10-09T02:38:16.663Z,30.8
2022-10-09T02:43:53.791Z,30.8
2022-10-09T02:49:30.618Z,30.8
2022-10-09T02:54:51.390Z,30.8
2022-10-09T03:00:32.787Z,30.8
2022-10-09T03:06:11.396Z,30.8
2022-10-09T03:11:32.093Z,30.8
2022-10-09T03:22:01.188Z,30.7
2022-10-09T03:27:21.507Z,30.7
2022-10-09T03:38:20.102Z,30.6
2022-10-09T03:48:16.871Z,30.6
2022-10-09T03:53:38.651Z,30.5
2022-10-09T04:04:07.174Z,30.5
2022-10-09T04:09:28.695Z,30.5
2022-10-09T04:14:49.124Z,30.5
2022-10-09T04:20:11.404Z,30.5
2022-10-09T04:25:18.319Z,30.4
2022-10-09T04:30:40.264Z,30.4
2022-10-09T04:35:46.934Z,30.3
2022-10-09T04:41:08.629Z,30.3
2022-10-09T04:46:30.653Z,30.3
2022-10-09T04:51:55.067Z,30.3
2022-10-09T04:57:21.427Z,30.3
2022-10-09T05:02:44.929Z,30.3
2022-10-09T05:08:22.661Z,30.4
2022-10-09T05:13:59.628Z,30.3
2022-10-09T05:20:08.214Z,30.2
2022-10-09T05:31:11.146Z,30
2022-10-09T05:36:53.022Z,30
2022-10-09T05:42:30.940Z,30
2022-10-09T05:48:09.131Z,29.9
2022-10-09T05:53:46.416Z,29.8
2022-10-09T05:59:27.580Z,29.7
2022-10-09T06:05:06.606Z,29.6
2022-10-09T06:10:48.711Z,29.6
2022-10-09T06:16:26.789Z,29.5
2022-10-09T06:22:08.360Z,29.4
2022-10-09T06:27:50.618Z,31.1
2022-10-09T06:33:29.490Z,31.6
2022-10-09T06:39:12.137Z,30.8
2022-10-09T06:44:49.812Z,30.3
2022-10-09T06:50:27.544Z,34.6
2022-10-09T06:56:05.700Z,36.1
2022-10-09T07:01:43.200Z,37.7
2022-10-09T07:07:21.774Z,37.9
2022-10-09T07:12:59.535Z,37
2022-10-09T07:18:37.368Z,37.2
2022-10-09T07:24:19.126Z,38.2
2022-10-09T07:29:57.196Z,39.3
2022-10-09T07:35:35.753Z,40.4
2022-10-09T07:41:12.872Z,41.4
2022-10-09T07:46:51.337Z,42.4
2022-10-09T07:52:28.461Z,43.3
2022-10-09T08:03:32.625Z,48.1
2022-10-09T08:09:13.890Z,49.7
2022-10-09T08:14:52.729Z,51.4
2022-10-09T08:20:30.791Z,52.8
2022-10-09T08:26:07.540Z,53.6
2022-10-09T08:31:49.854Z,51.3
2022-10-09T08:37:30.037Z,50.8
2022-10-09T08:43:16.248Z,51.1
2022-10-09T08:48:38.425Z,52.7
2022-10-09T08:54:16.265Z,56.3
2022-10-09T08:59:37.974Z,58.2
2022-10-09T09:05:16.890Z,59.1
2022-10-09T09:10:55.154Z,59.9
2022-10-09T09:16:16.988Z,61.1
2022-10-09T09:21:54.508Z,60.2
2022-10-09T09:27:17.349Z,60
2022-10-09T09:32:42.729Z,59.9
2022-10-09T09:38:08.333Z,62.9
2022-10-09T09:44:49.429Z,63.8
2022-10-09T09:49:59.009Z,63.9
2022-10-09T09:56:14.249Z,64.5
2022-10-09T10:01:31.530Z,65.1
2022-10-09T10:06:55.295Z,65.5
2022-10-09T10:12:21.093Z,66
2022-10-09T10:17:48.780Z,66.5
2022-10-09T10:23:11.094Z,66.9
2022-10-09T10:28:21.436Z,67.3
2022-10-09T10:39:21.560Z,67.8
2022-10-09T10:44:58.908Z,68.1
2022-10-09T10:50:23.213Z,68.6
2022-10-09T10:55:44.841Z,68.6
2022-10-09T11:06:39.242Z,69.3
2022-10-09T11:12:24.816Z,69.6
2022-10-09T11:18:01.187Z,69.8
2022-10-09T11:28:32.935Z,70.2
2022-10-09T11:33:55.942Z,70.4
2022-10-09T11:39:34.228Z,70.8
2022-10-09T11:44:47.794Z,70.8
2022-10-09T11:50:12.505Z,70.6
2022-10-09T11:55:34.508Z,70.8
2022-10-09T12:00:56.342Z,70.9
2022-10-09T12:06:34.502Z,71
2022-10-09T12:12:00.242Z,70.9
2022-10-09T12:17:22.561Z,70.8
2022-10-09T12:23:27.782Z,70.6
2022-10-09T12:28:50.070Z,70.3
2022-10-09T12:34:28.232Z,70.2
2022-10-09T12:40:05.239Z,70.2
2022-10-09T12:45:50.280Z,69.8
2022-10-09T12:51:27.164Z,69.4
2022-10-09T12:57:05.841Z,69.1
2022-10-09T13:02:46.717Z,68.9
2022-10-09T13:08:23.662Z,68.6
2022-10-09T13:14:01.338Z,68.1
2022-10-09T13:19:39.788Z,67.8
2022-10-09T13:25:20.728Z,67.3
2022-10-09T13:30:59.239Z,66.8
2022-10-09T13:36:36.824Z,66.1
2022-10-09T13:42:15.315Z,65.4
2022-10-09T13:47:57.684Z,64.9
2022-10-09T13:53:35.026Z,64.2
2022-10-09T13:59:14.127Z,63.5
2022-10-09T14:04:52.809Z,62.8
2022-10-09T14:10:31.056Z,61.8
2022-10-09T14:16:07.530Z,61.1
2022-10-09T14:21:48.586Z,59.9
2022-10-09T14:27:26.263Z,59
2022-10-09T14:33:04.426Z,58.2
2022-10-09T14:39:04.555Z,57.3
2022-10-09T14:44:42.853Z,56
2022-10-09T14:50:04.353Z,51.7
2022-10-09T14:55:41.737Z,49.5
2022-10-09T15:01:18.673Z,48.2
2022-10-09T15:06:57.099Z,47.3
2022-10-09T15:12:35.376Z,46.6
2022-10-09T15:18:17.926Z,46.1
2022-10-09T15:23:55.131Z,45.6
2022-10-09T15:29:34.504Z,45.3
2022-10-09T15:35:14.293Z,45.1
2022-10-09T15:40:54.990Z,44.8
2022-10-09T15:46:33.325Z,44.6
2022-10-09T15:52:23.591Z,44.4
2022-10-09T15:58:02.730Z,44.3
2022-10-09T16:03:41.622Z,44.2
2022-10-09T16:09:19.335Z,44.1
2022-10-09T16:15:05.809Z,43.9
2022-10-09T16:20:31.542Z,43.8
2022-10-09T16:26:11.309Z,43.8
2022-10-09T16:31:32.809Z,43.6
2022-10-09T16:36:55.001Z,43.4
2022-10-09T16:43:03.888Z,43.3
2022-10-09T16:48:25.719Z,43.1
2022-10-09T16:53:52.988Z,43
2022-10-09T17:04:53.441Z,42.7
2022-10-09T17:10:36.180Z,42.6
2022-10-09T17:21:38.126Z,42.4
2022-10-09T17:27:01.184Z,42.3
2022-10-09T17:32:39.871Z,42.1
2022-10-09T17:38:23.013Z,42.1
2022-10-09T17:43:50.186Z,41.9
2022-10-09T17:54:28.347Z,41.8
2022-10-09T17:59:50.570Z,41.6
2022-10-09T18:05:29.179Z,41.6
2022-10-09T18:21:25.417Z,41.3
2022-10-09T18:27:03.118Z,41.3
2022-10-09T18:32:29.951Z,41.1
2022-10-09T18:38:10.676Z,40.9
2022-10-09T18:43:47.743Z,40.8
2022-10-09T18:49:26.318Z,40.8
2022-10-09T18:55:07.799Z,40.8
2022-10-09T19:00:44.829Z,40.7
2022-10-09T19:06:30.917Z,40.6
2022-10-09T19:12:09.668Z,40.6
2022-10-09T19:17:47.701Z,40.5
2022-10-09T19:23:29.631Z,40.4
2022-10-09T19:29:07.377Z,40.6
2022-10-09T19:34:47.644Z,40.6
2022-10-09T19:40:30.337Z,40.7
2022-10-09T19:51:33.830Z,40.6
2022-10-09T20:02:32.381Z,40.6
2022-10-09T20:07:58.289Z,40.6
2022-10-09T20:13:37.032Z,40.5
2022-10-09T20:24:22.834Z,40.4
2022-10-09T20:30:06.041Z,40.3
2022-10-09T20:35:29.762Z,40.3
2022-10-09T20:41:11.177Z,40.3
2022-10-09T20:46:33.899Z,40.2
2022-10-09T20:52:11.367Z,40.2
2022-10-09T21:02:44.642Z,40.1
2022-10-09T21:08:07.436Z,40.1
2022-10-09T21:13:46.563Z,40.1
2022-10-09T21:19:08.445Z,40.1
2022-10-09T21:24:52.364Z,40.1
2022-10-09T21:30:15.848Z,40
2022-10-09T21:35:56.167Z,39.9
2022-10-09T21:41:56.672Z,39.9
2022-10-09T21:47:33.646Z,39.8
2022-10-09T21:53:10.267Z,39.8
2022-10-09T21:58:34.774Z,39.8
2022-10-09T22:04:11.745Z,39.8
2022-10-09T22:09:49.469Z,39.7
2022-10-09T22:20:54.035Z,39.7
2022-10-09T22:26:32.245Z,39.6
2022-10-09T22:32:10.575Z,39.6
2022-10-09T22:37:47.213Z,39.5
2022-10-09T22:43:24.220Z,39.4
2022-10-09T22:48:46.184Z,39.4
2022-10-09T22:59:43.533Z,39.4
2022-10-09T23:05:21.299Z,39.3
2022-10-09T23:16:05.284Z,39.3
2022-10-09T23:21:28.498Z,39.3
2022-10-09T23:27:05.516Z,39.2
2022-10-09T23:32:43.154Z,39.1
2022-10-09T23:38:20.671Z,39.1
2022-10-09T23:43:42.012Z,39.1
2022-10-09T23:49:24.017Z,39.1
